Time;durP1;ratioP1;P1;durP2;ratioP2;P2;SDS_P1;SDS_P2;PMS_P1;PMS_P2;Temp;Humidity;BMP_temperature;BMP_pressure;BME280_temperature;BME280_humidity;BME280_pressure;Samples;Min_cycle;Max_cycle;Signal;HPM_P1;HPM_P2
2021/05/27 00:00:58;;;;;;;0.63;0.47;;;22.30;50.60;;;;;;6318394;28;20028;-68
2021/05/27 00:03:59;;;;;;;0.20;0.20;;;22.30;50.60;;;;;;6297617;28;20028;-69
2021/05/27 00:06:59;;;;;;;0.52;0.25;;;22.30;50.60;;;;;;6298037;28;20020;-68
2021/05/27 00:10:00;;;;;;;0.50;0.10;;;22.30;50.60;;;;;;6317249;28;20031;-68
2021/05/27 00:13:01;;;;;;;0.38;0.30;;;22.30;50.60;;;;;;6318937;28;20032;-68
2021/05/27 00:16:02;;;;;;;0.52;0.30;;;22.30;50.60;;;;;;6318920;28;20135;-69
2021/05/27 00:19:03;;;;;;;1.13;0.30;;;22.30;50.60;;;;;;6318294;28;20032;-69
2021/05/27 00:22:03;;;;;;;0.95;0.30;;;22.30;50.60;;;;;;6318831;28;20036;-69
2021/05/27 00:25:06;;;;;;;0.17;0.17;;;22.30;50.60;;;;;;6318308;28;20032;-68
2021/05/27 00:28:06;;;;;;;1.40;0.40;;;22.30;50.60;;;;;;6318536;28;20021;-69
2021/05/27 00:31:07;;;;;;;0.55;0.30;;;22.30;50.60;;;;;;6317920;28;20473;-69
2021/05/27 00:34:08;;;;;;;0.80;0.25;;;22.30;50.60;;;;;;6318658;28;20028;-69
2021/05/27 00:37:08;;;;;;;0.65;0.20;;;22.30;50.60;;;;;;6318547;28;20036;-69
2021/05/27 00:40:11;;;;;;;0.30;0.20;;;22.30;50.50;;;;;;6308105;28;20028;-69
2021/05/27 00:43:12;;;;;;;0.82;0.30;;;22.30;50.60;;;;;;6293135;28;20016;-68
2021/05/27 00:46:12;;;;;;;0.57;0.20;;;22.30;50.60;;;;;;6291531;28;20021;-68
2021/05/27 00:49:13;;;;;;;0.30;0.17;;;22.30;50.70;;;;;;6306440;28;20647;-69
2021/05/27 00:52:13;;;;;;;0.15;0.15;;;22.30;50.60;;;;;;6312753;28;20055;-69
2021/05/27 00:55:15;;;;;;;0.20;0.20;;;22.30;50.60;;;;;;6290623;28;20028;-69
2021/05/27 00:58:18;;;;;;;0.50;0.20;;;22.30;50.60;;;;;;6292942;28;20536;-69
2021/05/27 01:01:19;;;;;;;0.43;0.20;;;22.30;50.50;;;;;;6292696;28;20107;-66
2021/05/27 01:04:19;;;;;;;0.32;0.22;;;22.30;50.60;;;;;;6292602;28;20023;-67
2021/05/27 01:07:20;;;;;;;0.32;0.10;;;22.30;50.60;;;;;;6292614;28;20405;-67
2021/05/27 01:10:21;;;;;;;0.25;0.25;;;22.30;50.60;;;;;;6308590;28;20482;-66
2021/05/27 01:13:24;;;;;;;0.90;0.20;;;22.30;50.60;;;;;;6317826;28;20065;-67
2021/05/27 01:16:24;;;;;;;0.30;0.22;;;22.30;50.60;;;;;;6317699;28;20557;-67
2021/05/27 01:19:25;;;;;;;0.63;0.30;;;22.30;50.60;;;;;;6316761;28;20040;-67
2021/05/27 01:22:26;;;;;;;2.45;0.25;;;22.30;50.60;;;;;;6317415;28;20035;-67
2021/05/27 01:25:27;;;;;;;0.40;0.20;;;22.30;50.60;;;;;;6316790;28;20028;-67
2021/05/27 01:28:30;;;;;;;0.80;0.30;;;22.30;50.60;;;;;;6317496;28;20024;-67
2021/05/27 01:31:32;;;;;;;0.20;0.20;;;22.30;50.60;;;;;;6316482;28;20428;-67
2021/05/27 01:34:34;;;;;;;0.30;0.20;;;22.30;50.60;;;;;;6309285;28;20032;-67
2021/05/27 01:37:36;;;;;;;0.22;0.20;;;22.30;51.30;;;;;;6291843;28;20410;-67
2021/05/27 01:40:38;;;;;;;0.40;0.20;;;22.30;50.60;;;;;;6293510;28;20028;-66
2021/05/27 01:43:38;;;;;;;0.10;0.10;;;22.30;50.60;;;;;;6291649;28;20116;-67
2021/05/27 01:46:39;;;;;;;0.30;0.20;;;22.30;50.60;;;;;;6290694;28;20477;-68
2021/05/27 01:49:40;;;;;;;0.10;0.10;;;22.30;50.60;;;;;;6297493;28;20028;-67
2021/05/27 01:52:41;;;;;;;0.55;0.20;;;22.30;50.60;;;;;;6303670;28;20113;-67
2021/05/27 01:55:49;;;;;;;0.20;0.20;;;22.30;50.60;;;;;;6280280;28;20029;-67
2021/05/27 01:58:49;;;;;;;0.32;0.10;;;22.30;50.60;;;;;;6291147;28;20025;-67
2021/05/27 02:01:51;;;;;;;0.22;0.10;;;22.30;50.60;;;;;;6314158;28;20050;-66
2021/05/27 02:04:52;;;;;;;0.30;0.20;;;22.30;50.50;;;;;;6316644;28;20043;-67
2021/05/27 02:07:53;;;;;;;0.20;0.20;;;22.30;50.60;;;;;;6316143;28;20028;-66
2021/05/27 02:10:53;;;;;;;0.28;0.20;;;22.30;50.50;;;;;;6315408;28;20055;-67
2021/05/27 02:13:54;;;;;;;0.30;0.22;;;22.30;50.60;;;;;;6316097;28;20032;-67
2021/05/27 02:16:55;;;;;;;0.20;0.20;;;22.30;50.50;;;;;;6316500;28;20586;-67
2021/05/27 02:19:55;;;;;;;0.20;0.20;;;22.30;50.60;;;;;;6311986;28;20225;-64
2021/05/27 02:22:56;;;;;;;0.20;0.20;;;22.30;50.60;;;;;;6291834;28;20539;-65
2021/05/27 02:25:56;;;;;;;0.60;0.10;;;22.30;50.50;;;;;;6291531;28;20017;-64
2021/05/27 02:29:00;;;;;;;0.20;0.20;;;22.30;50.50;;;;;;6291774;28;20355;-64
2021/05/27 02:32:00;;;;;;;0.20;0.20;;;22.30;50.50;;;;;;6271519;28;20017;-64
2021/05/27 02:35:01;;;;;;;0.50;0.22;;;22.30;50.50;;;;;;6271959;28;20020;-64
2021/05/27 02:38:02;;;;;;;0.15;0.10;;;22.30;50.60;;;;;;6315647;28;20384;-65
2021/05/27 02:41:04;;;;;;;0.22;0.20;;;22.30;50.50;;;;;;6309637;28;20051;-64
2021/05/27 02:44:05;;;;;;;0.30;0.20;;;22.30;50.60;;;;;;6316571;28;20024;-64
2021/05/27 02:47:06;;;;;;;0.10;0.10;;;22.30;50.50;;;;;;6316505;28;20435;-65
2021/05/27 02:50:07;;;;;;;0.10;0.10;;;22.30;50.50;;;;;;6314498;28;20044;-65
2021/05/27 02:53:08;;;;;;;0.35;0.20;;;22.30;50.60;;;;;;6290042;28;20025;-64
2021/05/27 02:56:08;;;;;;;0.13;0.13;;;22.30;50.60;;;;;;6300603;28;20028;-64
2021/05/27 02:59:09;;;;;;;0.10;0.10;;;22.30;50.50;;;;;;6319714;28;20107;-64
2021/05/27 03:02:09;;;;;;;0.15;0.15;;;22.30;50.50;;;;;;6321042;28;20384;-65
2021/05/27 03:05:10;;;;;;;0.35;0.20;;;22.30;50.50;;;;;;6321268;28;20028;-64
2021/05/27 03:08:11;;;;;;;0.20;0.20;;;22.30;50.50;;;;;;6296742;28;20036;-64
2021/05/27 03:11:11;;;;;;;0.50;0.30;;;22.30;50.50;;;;;;6296015;28;20044;-65
2021/05/27 03:14:12;;;;;;;0.93;0.20;;;22.30;50.60;;;;;;6296286;28;20029;-64
2021/05/27 03:17:12;;;;;;;0.20;0.20;;;22.30;50.50;;;;;;6310001;28;20024;-65
2021/05/27 03:20:13;;;;;;;0.20;0.20;;;22.30;50.50;;;;;;6320831;28;20038;-64
2021/05/27 03:23:14;;;;;;;0.55;0.20;;;22.30;51.20;;;;;;6320759;28;20028;-64
2021/05/27 03:26:16;;;;;;;0.20;0.15;;;22.30;50.50;;;;;;6316439;28;20132;-64
2021/05/27 03:29:17;;;;;;;0.38;0.20;;;22.30;50.50;;;;;;6295845;28;20872;-64
2021/05/27 03:32:18;;;;;;;0.30;0.20;;;22.30;50.50;;;;;;6307888;28;20024;-64
2021/05/27 03:35:19;;;;;;;0.20;0.20;;;22.30;50.50;;;;;;6321291;28;20074;-65
2021/05/27 03:38:19;;;;;;;0.20;0.20;;;22.30;50.50;;;;;;6300031;28;20028;-65
2021/05/27 03:41:20;;;;;;;0.40;0.25;;;22.30;50.50;;;;;;6296756;28;20032;-64
2021/05/27 03:44:20;;;;;;;0.10;0.10;;;22.30;50.50;;;;;;6320393;28;20089;-64
2021/05/27 03:47:21;;;;;;;0.20;0.10;;;22.30;50.50;;;;;;6319073;28;20050;-64
2021/05/27 03:50:25;;;;;;;0.10;0.10;;;22.30;50.50;;;;;;6318703;28;20513;-65
2021/05/27 03:53:25;;;;;;;0.20;0.20;;;22.30;50.50;;;;;;6292788;28;20037;-65
2021/05/27 03:56:27;;;;;;;0.20;0.13;;;22.30;50.50;;;;;;6270495;28;20028;-64
2021/05/27 04:03:25;;;;;;;;;;;22.30;50.50;;;;;;6318640;28;20103;-65
2021/05/27 04:09:47;;;;;;;0.10;0.10;;;22.30;50.50;;;;;;6267212;28;20592;-64
2021/05/27 04:12:47;;;;;;;0.30;0.15;;;22.30;50.50;;;;;;6295331;28;20101;-65
2021/05/27 04:15:48;;;;;;;0.28;0.20;;;22.30;50.50;;;;;;6317794;28;20030;-64
2021/05/27 04:18:49;;;;;;;0.63;0.20;;;22.30;50.50;;;;;;6317634;28;20396;-65
2021/05/27 04:21:50;;;;;;;0.20;0.20;;;22.30;50.50;;;;;;6317439;28;20035;-65
2021/05/27 04:24:50;;;;;;;0.10;0.10;;;22.30;50.50;;;;;;6294301;28;20020;-64
2021/05/27 04:27:53;;;;;;;0.20;0.20;;;22.30;50.50;;;;;;6292277;28;20031;-65
2021/05/27 04:31:09;;;;;;;0.20;0.20;;;22.30;50.50;;;;;;6292120;28;20036;-64
2021/05/27 04:34:09;;;;;;;0.28;0.20;;;22.30;50.50;;;;;;6308732;28;20032;-64
2021/05/27 04:37:10;;;;;;;0.28;0.20;;;22.30;50.50;;;;;;6317151;28;20078;-65
2021/05/27 04:40:11;;;;;;;0.10;0.10;;;22.30;50.50;;;;;;6307218;28;20033;-64
2021/05/27 04:43:14;;;;;;;0.10;0.10;;;22.30;50.50;;;;;;6299504;28;20592;-64
2021/05/27 04:46:14;;;;;;;0.20;0.10;;;22.30;50.50;;;;;;6316084;28;20017;-65
2021/05/27 04:49:15;;;;;;;0.57;0.30;;;22.30;50.50;;;;;;6316682;28;20369;-65
2021/05/27 04:52:59;;;;;;;0.17;0.17;;;22.30;50.50;;;;;;6337797;27;20177;-65
2021/05/27 04:56:00;;;;;;;0.20;0.10;;;22.30;50.50;;;;;;6336373;28;20469;-64
2021/05/27 04:59:00;;;;;;;0.20;0.20;;;22.30;50.50;;;;;;6336446;28;20024;-65
2021/05/27 05:02:01;;;;;;;0.13;0.10;;;22.30;50.50;;;;;;6327517;28;20024;-64
2021/05/27 05:05:03;;;;;;;0.30;0.20;;;22.30;50.60;;;;;;6351758;28;20027;-65
2021/05/27 05:08:05;;;;;;;1.15;0.20;;;22.30;50.50;;;;;;6361615;28;20031;-64
2021/05/27 05:11:05;;;;;;;0.10;0.10;;;22.30;50.50;;;;;;6361475;28;20122;-64
2021/05/27 05:14:06;;;;;;;0.20;0.20;;;22.30;50.50;;;;;;6361534;28;20071;-65
2021/05/27 05:17:06;;;;;;;0.22;0.20;;;22.30;50.50;;;;;;6362588;28;20026;-67
2021/05/27 05:20:08;;;;;;;2.47;0.20;;;22.30;50.50;;;;;;6329038;28;20031;-67
2021/05/27 05:23:10;;;;;;;0.70;0.40;;;22.30;50.30;;;;;;6345034;28;20350;-67
2021/05/27 05:26:11;;;;;;;0.80;0.40;;;22.30;50.30;;;;;;6341760;27;20020;-67
2021/05/27 05:29:12;;;;;;;1.30;0.60;;;22.30;48.40;;;;;;6333477;28;20034;-67
2021/05/27 05:32:12;;;;;;;1.67;0.70;;;22.30;48.30;;;;;;6336708;28;20032;-68
2021/05/27 05:35:15;;;;;;;2.88;0.70;;;22.20;48.00;;;;;;6349139;28;20511;-63
2021/05/27 05:38:15;;;;;;;4.53;0.80;;;22.20;47.80;;;;;;6343375;28;20069;-63
2021/05/27 05:41:16;;;;;;;3.63;0.55;;;22.30;48.40;;;;;;6340324;28;20019;-64
2021/05/27 05:44:18;;;;;;;0.55;0.43;;;22.30;48.50;;;;;;6356566;27;20073;-63
2021/05/27 05:47:18;;;;;;;2.17;0.50;;;22.30;48.90;;;;;;6363453;27;20403;-65
2021/05/27 05:53:40;;;;;;;0.47;0.30;;;22.30;49.00;;;;;;6339757;28;20036;-63
2021/05/27 05:56:41;;;;;;;1.00;0.43;;;22.30;49.10;;;;;;6360279;28;20096;-64
2021/05/27 05:59:42;;;;;;;2.78;0.50;;;22.30;49.10;;;;;;6350722;28;20026;-64
2021/05/27 06:02:43;;;;;;;2.22;0.40;;;22.30;49.30;;;;;;6319639;28;20033;-64
2021/05/27 06:05:44;;;;;;;0.90;0.50;;;22.30;49.40;;;;;;6338282;28;20088;-64
2021/05/27 06:08:45;;;;;;;0.40;0.30;;;22.30;49.50;;;;;;6334036;28;20430;-63
2021/05/27 06:11:45;;;;;;;1.27;0.30;;;22.30;49.50;;;;;;6338199;28;20038;-64
2021/05/27 06:14:46;;;;;;;1.45;0.40;;;22.30;49.60;;;;;;6322591;28;20472;-64
2021/05/27 06:17:48;;;;;;;0.68;0.43;;;22.30;49.70;;;;;;6320787;28;20031;-64
2021/05/27 06:20:49;;;;;;;1.17;0.40;;;22.30;49.80;;;;;;6328213;28;20563;-63
2021/05/27 06:23:49;;;;;;;2.15;0.40;;;22.30;49.80;;;;;;6338065;28;20130;-63
2021/05/27 06:26:50;;;;;;;1.15;0.52;;;22.30;49.90;;;;;;6318128;28;20071;-65
2021/05/27 06:29:51;;;;;;;1.40;0.35;;;22.30;49.80;;;;;;6331096;28;20102;-64
2021/05/27 06:32:51;;;;;;;2.97;0.40;;;22.30;49.80;;;;;;6344298;28;20035;-64
2021/05/27 06:35:53;;;;;;;4.50;0.60;;;22.30;50.00;;;;;;6340826;28;20106;-64
2021/05/27 06:38:54;;;;;;;3.63;0.50;;;22.40;50.00;;;;;;6346768;28;20463;-63
2021/05/27 06:41:55;;;;;;;1.30;0.38;;;22.40;49.70;;;;;;6331419;28;20024;-64
2021/05/27 06:44:56;;;;;;;0.95;0.40;;;22.40;49.50;;;;;;6325196;28;20492;-64
2021/05/27 06:47:57;;;;;;;2.08;0.40;;;22.40;49.50;;;;;;6323163;28;20099;-64
2021/05/27 06:50:57;;;;;;;1.83;0.30;;;22.40;49.70;;;;;;6320398;28;20040;-65
2021/05/27 06:53:58;;;;;;;2.10;0.35;;;22.50;49.70;;;;;;6304695;28;20063;-64
2021/05/27 06:56:59;;;;;;;0.82;0.38;;;22.50;49.70;;;;;;6322945;28;20389;-64
2021/05/27 06:59:59;;;;;;;2.67;0.40;;;22.50;49.70;;;;;;6322641;28;20023;-64
2021/05/27 07:03:01;;;;;;;1.55;0.38;;;22.50;49.60;;;;;;6337974;28;20103;-64
2021/05/27 07:06:05;;;;;;;1.48;0.45;;;22.50;49.70;;;;;;6320315;28;20473;-64
2021/05/27 07:09:06;;;;;;;1.40;0.63;;;22.50;49.70;;;;;;6320471;28;20035;-64
2021/05/27 07:12:07;;;;;;;2.60;1.20;;;22.50;49.70;;;;;;6336064;28;20473;-65
2021/05/27 07:15:08;;;;;;;3.13;1.38;;;22.50;49.80;;;;;;6322818;28;20102;-65
2021/05/27 07:18:09;;;;;;;6.28;1.55;;;22.50;49.70;;;;;;6316532;28;20031;-64
2021/05/27 07:21:10;;;;;;;3.50;1.40;;;22.50;49.80;;;;;;6320669;28;20366;-64
2021/05/27 07:24:11;;;;;;;5.05;1.45;;;22.50;49.80;;;;;;6343007;28;20031;-64
2021/05/27 07:27:11;;;;;;;2.55;1.25;;;22.50;49.90;;;;;;6322402;28;20027;-65
2021/05/27 07:30:12;;;;;;;5.05;1.75;;;22.50;49.80;;;;;;6320166;28;20028;-65
2021/05/27 07:33:13;;;;;;;4.28;1.45;;;22.50;49.90;;;;;;6331272;28;20485;-66
2021/05/27 07:36:14;;;;;;;3.78;1.70;;;22.50;49.80;;;;;;6329855;28;20022;-66
2021/05/27 07:39:16;;;;;;;2.42;1.10;;;22.50;49.70;;;;;;6326394;28;20024;-66
2021/05/27 07:42:17;;;;;;;3.83;1.50;;;22.50;49.80;;;;;;6344536;28;20070;-67
2021/05/27 07:45:18;;;;;;;6.88;1.70;;;22.50;49.80;;;;;;6346051;28;20023;-66
2021/05/27 07:48:20;;;;;;;5.03;1.65;;;22.50;49.80;;;;;;6343162;28;20107;-65
2021/05/27 07:51:21;;;;;;;2.90;1.17;;;22.50;50.60;;;;;;6339150;28;20036;-63
2021/05/27 07:54:25;;;;;;;5.20;1.27;;;22.50;50.10;;;;;;6325071;28;20052;-65
2021/05/27 07:57:26;;;;;;;2.75;1.10;;;22.50;49.90;;;;;;6330698;28;20404;-66
2021/05/27 08:00:30;;;;;;;3.97;1.40;;;22.50;49.70;;;;;;6343932;28;20035;-66
2021/05/27 08:03:33;;;;;;;2.30;1.10;;;22.50;49.30;;;;;;6333311;28;20027;-64
2021/05/27 08:06:34;;;;;;;2.88;1.20;;;22.50;49.70;;;;;;6322278;28;20028;-65
2021/05/27 08:09:34;;;;;;;4.18;1.45;;;22.50;49.60;;;;;;6344586;28;20339;-66
2021/05/27 08:12:35;;;;;;;2.03;1.20;;;22.50;49.70;;;;;;6336557;28;20385;-66
2021/05/27 08:15:36;;;;;;;3.20;1.10;;;22.50;49.80;;;;;;6320179;28;20077;-65
2021/05/27 08:18:37;;;;;;;3.40;1.10;;;22.50;49.70;;;;;;6335652;28;20381;-66
2021/05/27 08:21:38;;;;;;;2.78;1.05;;;22.50;49.70;;;;;;6321678;28;20396;-65
2021/05/27 08:24:38;;;;;;;1.85;1.13;;;22.50;49.80;;;;;;6317804;28;20133;-65
2021/05/27 08:27:39;;;;;;;3.28;1.10;;;22.50;49.90;;;;;;6328956;28;20031;-65
2021/05/27 08:30:39;;;;;;;2.20;1.15;;;22.50;49.90;;;;;;6318286;28;20064;-66
2021/05/27 08:33:41;;;;;;;3.45;1.10;;;22.50;50.00;;;;;;6335747;28;20020;-66
2021/05/27 08:36:41;;;;;;;2.67;1.00;;;22.50;50.10;;;;;;6334230;28;20020;-68
2021/05/27 08:39:42;;;;;;;6.28;1.10;;;22.50;49.70;;;;;;6339506;28;20472;-67
2021/05/27 08:42:43;;;;;;;3.42;1.33;;;22.40;48.60;;;;;;6342186;28;20112;-67
2021/05/27 08:45:47;;;;;;;5.55;1.13;;;22.40;49.40;;;;;;6318750;28;20452;-66
2021/05/27 08:48:48;;;;;;;5.25;1.30;;;22.40;48.80;;;;;;6332272;28;20028;-67
2021/05/27 08:51:50;;;;;;;5.60;1.20;;;22.40;48.60;;;;;;6337452;28;20135;-67
2021/05/27 08:54:51;;;;;;;4.75;0.98;;;22.30;48.40;;;;;;6338226;28;20103;-69
2021/05/27 08:57:52;;;;;;;2.95;1.33;;;22.30;48.20;;;;;;6343699;28;20391;-66
2021/05/27 09:00:53;;;;;;;2.83;1.10;;;22.30;47.70;;;;;;6342773;28;20442;-66
2021/05/27 09:03:54;;;;;;;4.50;1.17;;;22.30;48.20;;;;;;6340138;28;20032;-68
2021/05/27 09:06:55;;;;;;;6.30;1.02;;;22.30;48.30;;;;;;6342952;28;20029;-66
2021/05/27 09:09:58;;;;;;;3.30;1.00;;;22.30;48.20;;;;;;6339343;28;20027;-68
2021/05/27 09:13:19;;;;;;;2.50;1.02;;;22.30;48.00;;;;;;6339042;28;20036;-66
2021/05/27 09:16:20;;;;;;;5.60;1.30;;;22.30;48.00;;;;;;6291980;28;20397;-67
2021/05/27 09:19:20;;;;;;;12.82;1.55;;;22.30;48.40;;;;;;6295450;28;20032;-67
2021/05/27 09:22:22;;;;;;;9.32;1.83;;;22.30;49.10;;;;;;6293476;28;20024;-66
2021/05/27 09:25:28;;;;;;;6.05;1.58;;;22.30;48.30;;;;;;6317221;28;20390;-67
2021/05/27 09:28:30;;;;;;;8.52;1.65;;;22.30;48.20;;;;;;6319586;28;20043;-68
2021/05/27 09:31:32;;;;;;;8.98;1.65;;;22.30;48.40;;;;;;6342026;28;20429;-66
2021/05/27 09:34:51;;;;;;;12.77;1.40;;;22.30;48.50;;;;;;6342106;28;20107;-67
2021/05/27 09:37:55;;;;;;;5.57;1.30;;;22.20;48.70;;;;;;6345382;28;20078;-67
2021/05/27 09:40:56;;;;;;;8.00;1.30;;;22.20;48.70;;;;;;6342578;28;20016;-67
2021/05/27 09:44:16;;;;;;;4.15;1.60;;;22.20;48.80;;;;;;6321990;28;20412;-67
2021/05/27 09:47:33;;;;;;;3.95;1.70;;;22.20;48.70;;;;;;6322778;28;20495;-66
2021/05/27 09:50:41;;;;;;;6.25;1.30;;;22.20;48.40;;;;;;6339026;28;20516;-67
2021/05/27 09:53:52;;;;;;;5.25;1.20;;;22.20;48.50;;;;;;6319675;28;20086;-68
2021/05/27 09:56:53;;;;;;;2.78;1.10;;;22.20;47.90;;;;;;6345791;28;20047;-67
2021/05/27 09:59:55;;;;;;;4.55;1.00;;;22.20;48.00;;;;;;6332272;28;20027;-65
2021/05/27 10:02:56;;;;;;;2.22;1.13;;;22.20;48.70;;;;;;6347400;28;20102;-69
2021/05/27 10:06:03;;;;;;;2.97;0.88;;;22.20;47.90;;;;;;6347325;28;20153;-65
2021/05/27 10:09:05;;;;;;;1.25;0.68;;;22.20;47.20;;;;;;6343498;28;20484;-64
2021/05/27 10:12:06;;;;;;;3.40;0.88;;;22.20;47.00;;;;;;6345931;28;20015;-64
2021/05/27 10:15:09;;;;;;;2.90;0.68;;;22.20;47.00;;;;;;6332775;28;20098;-64
2021/05/27 10:18:17;;;;;;;2.70;0.90;;;22.20;47.10;;;;;;6346506;28;20479;-64
2021/05/27 10:21:18;;;;;;;1.73;0.82;;;22.30;47.70;;;;;;6344738;28;20055;-63
2021/05/27 10:24:19;;;;;;;3.03;1.05;;;22.20;47.60;;;;;;6345669;28;20027;-64
2021/05/27 10:27:20;;;;;;;6.57;0.90;;;22.20;47.50;;;;;;6345611;28;20480;-64
2021/05/27 10:30:22;;;;;;;3.15;0.88;;;22.20;47.70;;;;;;6337417;28;20093;-66
2021/05/27 10:33:24;;;;;;;2.10;0.80;;;22.30;47.90;;;;;;6319819;28;20024;-64
2021/05/27 10:36:43;;;;;;;1.35;0.70;;;22.30;48.00;;;;;;6339082;28;20487;-64
2021/05/27 10:39:43;;;;;;;2.08;0.75;;;22.30;48.00;;;;;;6345562;28;20024;-63
2021/05/27 10:42:56;;;;;;;2.63;0.88;;;22.30;48.10;;;;;;6346291;28;20028;-63
2021/05/27 10:46:01;;;;;;;3.05;0.47;;;22.30;48.10;;;;;;6330421;28;20319;-63
2021/05/27 10:49:01;;;;;;;;;;;22.30;48.10;;;;;;6344205;28;20035;-64
2021/05/27 10:52:26;;;;;;;2.03;0.60;;;22.30;48.20;;;;;;6327139;28;19920;-64
2021/05/27 10:55:54;;;;;;;1.87;0.43;;;22.30;48.20;;;;;;6325271;28;20080;-63
2021/05/27 10:58:55;;;;;;;0.73;0.40;;;22.30;48.40;;;;;;6317136;28;20258;-63
2021/05/27 11:01:57;;;;;;;6.93;0.60;;;22.30;48.40;;;;;;6336188;28;20035;-64
2021/05/27 11:05:15;;;;;;;1.45;0.60;;;22.30;48.50;;;;;;6327478;28;20096;-63
2021/05/27 11:08:20;;;;;;;1.85;0.70;;;22.30;48.50;;;;;;6343668;28;20023;-63
2021/05/27 11:11:40;;;;;;;1.23;0.50;;;22.30;48.70;;;;;;6343298;28;20070;-64
2021/05/27 11:14:41;;;;;;;1.02;0.55;;;22.30;48.80;;;;;;6299753;28;20044;-62
2021/05/27 11:17:43;;;;;;;1.90;0.60;;;22.30;48.90;;;;;;6341315;28;20103;-63
2021/05/27 11:20:44;;;;;;;1.15;0.50;;;22.30;49.00;;;;;;6332539;28;20384;-63
2021/05/27 11:27:29;;;;;;;2.25;0.60;;;22.30;49.20;;;;;;6337145;28;20031;-63
2021/05/27 11:30:42;;;;;;;0.90;0.43;;;22.30;49.40;;;;;;6325181;28;20050;-63
2021/05/27 11:33:42;;;;;;;1.48;0.70;;;22.30;49.40;;;;;;6328359;28;20458;-64
2021/05/27 11:36:58;;;;;;;3.45;0.80;;;22.30;49.40;;;;;;6310597;28;20982;-63
2021/05/27 11:39:58;;;;;;;1.95;0.45;;;22.30;49.50;;;;;;6292256;28;20028;-64
2021/05/27 11:42:59;;;;;;;1.95;0.65;;;22.30;49.50;;;;;;6338723;28;20019;-64
2021/05/27 11:46:05;;;;;;;3.65;0.60;;;22.30;49.50;;;;;;6325180;28;20024;-63
2021/05/27 11:49:07;;;;;;;0.80;0.47;;;22.30;49.50;;;;;;6330662;28;20035;-64
2021/05/27 11:52:17;;;;;;;0.40;0.30;;;22.30;49.50;;;;;;6327220;28;20039;-63
2021/05/27 11:55:23;;;;;;;1.08;0.57;;;22.30;49.60;;;;;;6314280;28;20012;-64
2021/05/27 11:58:38;;;;;;;0.52;0.43;;;22.30;49.60;;;;;;6339388;28;20027;-64
2021/05/27 12:01:41;;;;;;;0.75;0.50;;;22.30;49.60;;;;;;6321916;28;20552;-63
2021/05/27 12:04:41;;;;;;;0.93;0.50;;;22.30;49.60;;;;;;6316740;28;20035;-63
2021/05/27 12:07:57;;;;;;;3.25;0.60;;;22.30;49.60;;;;;;6324328;28;20043;-64
2021/05/27 12:10:57;;;;;;;1.13;0.47;;;22.30;49.70;;;;;;6321265;28;20119;-64
2021/05/27 12:13:59;;;;;;;1.23;0.40;;;22.30;49.70;;;;;;6323825;28;20442;-64
2021/05/27 12:17:00;;;;;;;1.00;0.50;;;22.30;49.70;;;;;;6321276;28;20020;-64
2021/05/27 12:20:30;;;;;;;1.38;0.40;;;22.30;49.70;;;;;;6314279;28;20016;-67
2021/05/27 12:23:32;;;;;;;2.22;0.40;;;22.30;49.70;;;;;;6316425;28;20334;-68
2021/05/27 12:26:33;;;;;;;2.30;0.60;;;22.30;48.50;;;;;;6321363;28;20441;-68
2021/05/27 12:29:36;;;;;;;1.63;0.60;;;22.30;47.50;;;;;;6338039;28;20073;-68
2021/05/27 12:32:39;;;;;;;0.90;0.40;;;22.30;47.40;;;;;;6330152;28;20507;-67
2021/05/27 12:35:40;;;;;;;0.90;0.40;;;22.30;47.00;;;;;;6328922;28;20023;-67
2021/05/27 12:38:49;;;;;;;0.43;0.30;;;22.30;47.20;;;;;;6328466;28;20031;-67
2021/05/27 12:41:51;;;;;;;1.35;0.40;;;22.30;48.70;;;;;;6316724;28;20089;-67
2021/05/27 12:44:51;;;;;;;0.60;0.30;;;22.30;48.70;;;;;;6316077;28;20024;-67
2021/05/27 12:48:15;;;;;;;1.38;0.50;;;22.30;48.90;;;;;;6329246;28;20028;-67
2021/05/27 12:51:16;;;;;;;0.30;0.20;;;22.30;49.00;;;;;;6330896;28;20147;-67
2021/05/27 12:54:25;;;;;;;0.95;0.30;;;22.30;49.00;;;;;;6339398;28;20027;-67
2021/05/27 12:57:25;;;;;;;1.33;0.32;;;22.30;49.10;;;;;;6306421;28;20020;-67
2021/05/27 13:00:43;;;;;;;2.92;0.40;;;22.30;49.10;;;;;;6322643;28;20031;-67
2021/05/27 13:03:45;;;;;;;1.25;0.30;;;22.30;49.20;;;;;;6308188;28;20359;-68
2021/05/27 13:06:46;;;;;;;0.75;0.40;;;22.30;49.20;;;;;;6298202;28;20486;-68
2021/05/27 13:09:54;;;;;;;0.93;0.22;;;22.30;49.20;;;;;;6339231;28;20026;-67
2021/05/27 13:12:55;;;;;;;0.93;0.40;;;22.30;49.30;;;;;;6325855;28;20020;-64
2021/05/27 13:15:57;;;;;;;2.17;0.40;;;22.30;49.40;;;;;;6330277;28;20544;-66
2021/05/27 13:18:57;;;;;;;0.88;0.40;;;22.30;49.50;;;;;;6327241;28;20029;-66
2021/05/27 13:22:05;;;;;;;2.65;0.52;;;22.30;49.50;;;;;;6329667;28;20031;-65
2021/05/27 13:25:11;;;;;;;0.75;0.40;;;22.30;49.50;;;;;;6314888;28;20036;-67
2021/05/27 13:28:23;;;;;;;0.82;0.20;;;22.30;49.50;;;;;;6325251;28;20389;-68
2021/05/27 13:31:34;;;;;;;2.17;0.30;;;22.30;49.50;;;;;;6336222;28;20024;-66
2021/05/27 13:34:41;;;;;;;0.68;0.25;;;22.30;49.60;;;;;;6335720;28;20042;-65
2021/05/27 13:37:53;;;;;;;0.77;0.50;;;22.30;49.60;;;;;;6341358;28;20023;-64
2021/05/27 13:40:53;;;;;;;1.10;0.50;;;22.30;49.60;;;;;;6334105;28;20024;-64
2021/05/27 13:43:54;;;;;;;0.77;0.35;;;22.30;49.70;;;;;;6334445;28;20027;-64
2021/05/27 13:46:55;;;;;;;1.00;0.30;;;22.30;49.70;;;;;;6321632;28;20381;-64
2021/05/27 13:49:56;;;;;;;1.90;0.35;;;22.30;49.70;;;;;;6338344;28;20043;-64
2021/05/27 13:53:03;;;;;;;0.20;0.20;;;22.30;49.80;;;;;;6323006;28;20059;-64
2021/05/27 13:56:07;;;;;;;1.02;0.35;;;22.30;49.80;;;;;;6339603;28;20366;-67
2021/05/27 13:59:09;;;;;;;0.30;0.30;;;22.30;49.80;;;;;;6330807;28;20038;-67
2021/05/27 14:02:10;;;;;;;3.03;0.40;;;22.30;49.80;;;;;;6332412;28;20481;-67
2021/05/27 14:05:12;;;;;;;0.22;0.20;;;22.30;49.90;;;;;;6331432;28;20074;-67
2021/05/27 14:08:14;;;;;;;0.43;0.28;;;22.30;49.80;;;;;;6322911;28;20036;-67
2021/05/27 14:11:17;;;;;;;0.80;0.40;;;22.30;49.90;;;;;;6340727;28;20024;-66
2021/05/27 14:14:17;;;;;;;0.60;0.30;;;22.30;49.90;;;;;;6332551;28;20521;-67
2021/05/27 14:17:18;;;;;;;3.47;0.40;;;22.30;49.90;;;;;;6331728;28;20085;-67
2021/05/27 14:20:19;;;;;;;2.55;0.22;;;22.30;50.00;;;;;;6332942;28;20044;-67
2021/05/27 14:23:19;;;;;;;0.25;0.20;;;22.30;50.00;;;;;;6339697;28;20075;-66
2021/05/27 14:26:21;;;;;;;2.65;0.40;;;22.30;50.00;;;;;;6344600;28;20024;-67
2021/05/27 14:29:22;;;;;;;0.43;0.30;;;22.30;50.00;;;;;;6320301;28;20120;-67
2021/05/27 14:32:22;;;;;;;1.55;0.32;;;22.30;50.00;;;;;;6319871;28;20036;-67
2021/05/27 14:35:23;;;;;;;1.33;0.40;;;22.30;50.00;;;;;;6339561;28;20032;-67
2021/05/27 14:38:24;;;;;;;1.00;0.43;;;22.30;50.00;;;;;;6325005;28;20028;-67
2021/05/27 14:41:26;;;;;;;1.80;0.40;;;22.30;50.00;;;;;;6340455;28;20028;-67
2021/05/27 14:44:27;;;;;;;1.17;0.47;;;22.30;50.00;;;;;;6322517;28;20485;-67
2021/05/27 14:47:28;;;;;;;1.05;0.50;;;22.30;50.00;;;;;;6321403;28;20059;-67
2021/05/27 14:50:31;;;;;;;0.73;0.50;;;22.30;50.10;;;;;;6325597;28;20044;-68
2021/05/27 14:53:33;;;;;;;0.47;0.30;;;22.30;50.10;;;;;;6319811;28;20016;-69
2021/05/27 14:56:34;;;;;;;2.22;1.02;;;22.30;50.10;;;;;;6338299;28;20599;-69
2021/05/27 14:59:36;;;;;;;6.63;1.08;;;22.30;49.80;;;;;;6324067;28;20069;-68
2021/05/27 15:02:42;;;;;;;5.45;0.95;;;22.30;49.90;;;;;;6335121;28;20180;-69
2021/05/27 15:05:44;;;;;;;6.63;1.13;;;22.30;50.00;;;;;;6326761;28;20024;-68
2021/05/27 15:08:49;;;;;;;5.22;1.60;;;22.30;49.70;;;;;;6313798;28;20031;-67
2021/05/27 15:11:50;;;;;;;1.65;0.82;;;22.30;49.40;;;;;;6330620;28;20421;-66
2021/05/27 15:14:50;;;;;;;4.95;1.00;;;22.30;49.30;;;;;;6329131;28;20108;-67
2021/05/27 15:17:52;;;;;;;2.08;1.00;;;22.20;49.30;;;;;;6329854;28;20031;-65
2021/05/27 15:20:52;;;;;;;3.53;0.85;;;22.30;48.50;;;;;;6320559;28;20027;-65
2021/05/27 15:23:53;;;;;;;3.40;0.75;;;22.20;48.40;;;;;;6320329;28;20032;-65
2021/05/27 15:26:53;;;;;;;0.77;0.50;;;22.20;48.40;;;;;;6344771;28;20030;-66
2021/05/27 15:29:56;;;;;;;3.50;0.50;;;22.20;48.10;;;;;;6327977;28;20042;-68
2021/05/27 15:32:57;;;;;;;2.75;0.70;;;22.20;48.30;;;;;;6314700;28;20020;-67
2021/05/27 15:35:57;;;;;;;3.33;1.88;;;22.20;48.40;;;;;;6318829;28;20020;-67
2021/05/27 15:38:58;;;;;;;8.10;1.70;;;22.20;48.20;;;;;;6319835;28;20024;-67
2021/05/27 15:41:59;;;;;;;5.72;1.10;;;22.20;47.80;;;;;;6319913;28;20477;-66
2021/05/27 15:44:59;;;;;;;2.55;0.93;;;22.20;47.90;;;;;;6318236;28;20099;-64
2021/05/27 15:48:00;;;;;;;4.57;0.75;;;22.20;48.00;;;;;;6335707;28;20034;-64
2021/05/27 15:51:01;;;;;;;1.40;0.70;;;22.10;47.70;;;;;;6331035;28;20039;-66
2021/05/27 15:54:02;;;;;;;8.70;0.90;;;22.20;48.00;;;;;;6321286;28;20518;-66
2021/05/27 15:57:02;;;;;;;2.83;0.80;;;22.20;48.00;;;;;;6317485;28;20024;-64
2021/05/27 16:00:06;;;;;;;2.20;0.55;;;22.20;48.30;;;;;;6317608;28;20161;-63
2021/05/27 16:03:07;;;;;;;1.42;0.80;;;22.20;48.30;;;;;;6318568;28;20135;-64
2021/05/27 16:06:07;;;;;;;2.15;1.05;;;22.20;48.40;;;;;;6327647;28;20482;-64